sensor_id;sensor_type;location;lat;lon;timestamp;P1;durP1;ratioP1;P2;durP2;ratioP2
13122;SDS011;6627;50.920;12.050;2024-03-02T00:01:52;33.27;;;21.67;;
13122;SDS011;6627;50.920;12.050;2024-03-02T00:04:19;36.47;;;21.90;;
13122;SDS011;6627;50.920;12.050;2024-03-02T00:06:46;35.27;;;21.43;;
13122;SDS011;6627;50.920;12.050;2024-03-02T00:09:33;32.13;;;21.30;;
13122;SDS011;6627;50.920;12.050;2024-03-02T00:12:03;35.83;;;22.40;;
13122;SDS011;6627;50.920;12.050;2024-03-02T00:14:35;31.77;;;20.70;;
13122;SDS011;6627;50.920;12.050;2024-03-02T00:17:06;31.97;;;21.17;;
13122;SDS011;6627;50.920;12.050;2024-03-02T00:19:48;33.00;;;20.77;;
13122;SDS011;6627;50.920;12.050;2024-03-02T00:22:15;32.67;;;20.53;;
13122;SDS011;6627;50.920;12.050;2024-03-02T00:24:42;32.63;;;19.90;;
13122;SDS011;6627;50.920;12.050;2024-03-02T00:27:09;31.53;;;20.37;;
13122;SDS011;6627;50.920;12.050;2024-03-02T00:29:44;32.77;;;19.97;;
13122;SDS011;6627;50.920;12.050;2024-03-02T00:32:15;26.80;;;19.10;;
13122;SDS011;6627;50.920;12.050;2024-03-02T00:34:46;32.27;;;20.73;;
13122;SDS011;6627;50.920;12.050;2024-03-02T00:37:14;30.83;;;20.17;;
13122;SDS011;6627;50.920;12.050;2024-03-02T00:39:46;30.70;;;19.07;;
13122;SDS011;6627;50.920;12.050;2024-03-02T00:42:16;31.77;;;18.80;;
13122;SDS011;6627;50.920;12.050;2024-03-02T00:44:43;28.53;;;19.50;;
13122;SDS011;6627;50.920;12.050;2024-03-02T00:47:12;31.17;;;18.00;;
13122;SDS011;6627;50.920;12.050;2024-03-02T00:49:41;29.57;;;19.07;;
13122;SDS011;6627;50.920;12.050;2024-03-02T00:52:08;28.97;;;18.47;;
13122;SDS011;6627;50.920;12.050;2024-03-02T00:54:39;27.60;;;18.43;;
13122;SDS011;6627;50.920;12.050;2024-03-02T00:57:09;28.23;;;17.77;;
13122;SDS011;6627;50.920;12.050;2024-03-02T00:59:40;30.60;;;18.30;;
13122;SDS011;6627;50.920;12.050;2024-03-02T01:02:10;28.33;;;18.10;;
13122;SDS011;6627;50.920;12.050;2024-03-02T01:04:37;27.60;;;16.93;;
13122;SDS011;6627;50.920;12.050;2024-03-02T01:07:05;26.67;;;16.50;;
13122;SDS011;6627;50.920;12.050;2024-03-02T01:09:32;24.77;;;16.23;;
13122;SDS011;6627;50.920;12.050;2024-03-02T01:12:00;27.70;;;17.70;;
13122;SDS011;6627;50.920;12.050;2024-03-02T01:14:27;25.93;;;16.77;;
13122;SDS011;6627;50.920;12.050;2024-03-02T01:16:57;26.87;;;17.60;;
13122;SDS011;6627;50.920;12.050;2024-03-02T01:19:27;26.00;;;17.77;;
13122;SDS011;6627;50.920;12.050;2024-03-02T01:21:57;26.67;;;17.33;;
13122;SDS011;6627;50.920;12.050;2024-03-02T01:24:29;27.03;;;18.13;;
13122;SDS011;6627;50.920;12.050;2024-03-02T01:26:56;27.33;;;18.60;;
13122;SDS011;6627;50.920;12.050;2024-03-02T01:29:23;30.50;;;19.10;;
13122;SDS011;6627;50.920;12.050;2024-03-02T01:31:51;31.07;;;20.50;;
13122;SDS011;6627;50.920;12.050;2024-03-02T01:34:19;28.00;;;18.87;;
13122;SDS011;6627;50.920;12.050;2024-03-02T01:37:04;30.30;;;19.87;;
13122;SDS011;6627;50.920;12.050;2024-03-02T01:39:36;32.97;;;20.80;;
13122;SDS011;6627;50.920;12.050;2024-03-02T01:42:02;29.93;;;19.67;;
13122;SDS011;6627;50.920;12.050;2024-03-02T01:44:33;29.60;;;18.73;;
13122;SDS011;6627;50.920;12.050;2024-03-02T01:47:01;33.17;;;20.00;;
13122;SDS011;6627;50.920;12.050;2024-03-02T01:49:44;27.17;;;18.73;;
13122;SDS011;6627;50.920;12.050;2024-03-02T01:52:12;27.20;;;18.70;;
13122;SDS011;6627;50.920;12.050;2024-03-02T01:54:40;26.53;;;17.97;;
13122;SDS011;6627;50.920;12.050;2024-03-02T01:57:08;24.50;;;16.73;;
13122;SDS011;6627;50.920;12.050;2024-03-02T01:59:36;24.87;;;17.37;;
13122;SDS011;6627;50.920;12.050;2024-03-02T02:02:05;29.83;;;17.30;;
13122;SDS011;6627;50.920;12.050;2024-03-02T02:04:35;28.20;;;17.27;;
13122;SDS011;6627;50.920;12.050;2024-03-02T02:07:05;27.10;;;16.97;;
13122;SDS011;6627;50.920;12.050;2024-03-02T02:09:33;33.20;;;18.87;;
13122;SDS011;6627;50.920;12.050;2024-03-02T02:12:01;29.80;;;18.00;;
13122;SDS011;6627;50.920;12.050;2024-03-02T02:14:32;28.83;;;18.50;;
13122;SDS011;6627;50.920;12.050;2024-03-02T02:16:59;27.90;;;17.40;;
13122;SDS011;6627;50.920;12.050;2024-03-02T02:19:27;27.90;;;17.20;;
13122;SDS011;6627;50.920;12.050;2024-03-02T02:21:58;30.33;;;18.43;;
13122;SDS011;6627;50.920;12.050;2024-03-02T02:24:28;29.20;;;18.50;;
13122;SDS011;6627;50.920;12.050;2024-03-02T02:26:58;32.03;;;20.43;;
13122;SDS011;6627;50.920;12.050;2024-03-02T02:29:28;28.67;;;19.37;;
13122;SDS011;6627;50.920;12.050;2024-03-02T02:31:55;32.57;;;19.17;;
13122;SDS011;6627;50.920;12.050;2024-03-02T02:34:22;30.47;;;19.03;;
13122;SDS011;6627;50.920;12.050;2024-03-02T02:36:49;29.70;;;19.33;;
13122;SDS011;6627;50.920;12.050;2024-03-02T02:39:18;30.10;;;18.90;;
13122;SDS011;6627;50.920;12.050;2024-03-02T02:41:48;31.00;;;19.20;;
13122;SDS011;6627;50.920;12.050;2024-03-02T02:44:24;29.20;;;19.30;;
13122;SDS011;6627;50.920;12.050;2024-03-02T02:46:52;26.60;;;18.27;;
13122;SDS011;6627;50.920;12.050;2024-03-02T02:49:21;30.17;;;19.50;;
13122;SDS011;6627;50.920;12.050;2024-03-02T02:51:49;28.77;;;18.83;;
13122;SDS011;6627;50.920;12.050;2024-03-02T02:54:18;29.67;;;19.20;;
13122;SDS011;6627;50.920;12.050;2024-03-02T02:56:45;29.07;;;18.50;;
13122;SDS011;6627;50.920;12.050;2024-03-02T02:59:12;29.17;;;19.03;;
13122;SDS011;6627;50.920;12.050;2024-03-02T03:01:40;26.70;;;18.13;;
13122;SDS011;6627;50.920;12.050;2024-03-02T03:04:09;29.00;;;18.67;;
13122;SDS011;6627;50.920;12.050;2024-03-02T03:06:37;27.73;;;18.20;;
13122;SDS011;6627;50.920;12.050;2024-03-02T03:09:06;30.40;;;17.97;;
13122;SDS011;6627;50.920;12.050;2024-03-02T03:11:36;28.90;;;18.37;;
13122;SDS011;6627;50.920;12.050;2024-03-02T03:14:05;26.90;;;17.73;;
13122;SDS011;6627;50.920;12.050;2024-03-02T03:16:32;29.27;;;18.80;;
13122;SDS011;6627;50.920;12.050;2024-03-02T03:18:59;25.47;;;16.30;;
13122;SDS011;6627;50.920;12.050;2024-03-02T03:21:27;29.87;;;18.23;;
13122;SDS011;6627;50.920;12.050;2024-03-02T03:23:54;31.43;;;17.40;;
13122;SDS011;6627;50.920;12.050;2024-03-02T03:26:24;32.93;;;20.20;;
13122;SDS011;6627;50.920;12.050;2024-03-02T03:28:55;34.37;;;20.30;;
13122;SDS011;6627;50.920;12.050;2024-03-02T03:31:26;33.40;;;20.90;;
13122;SDS011;6627;50.920;12.050;2024-03-02T03:33:56;37.40;;;21.53;;
13122;SDS011;6627;50.920;12.050;2024-03-02T03:36:26;30.53;;;19.17;;
13122;SDS011;6627;50.920;12.050;2024-03-02T03:38:54;30.63;;;19.10;;
13122;SDS011;6627;50.920;12.050;2024-03-02T03:41:21;29.83;;;17.73;;
13122;SDS011;6627;50.920;12.050;2024-03-02T03:43:48;32.47;;;18.20;;
13122;SDS011;6627;50.920;12.050;2024-03-02T03:46:17;28.63;;;18.37;;
13122;SDS011;6627;50.920;12.050;2024-03-02T03:48:45;28.67;;;19.10;;
13122;SDS011;6627;50.920;12.050;2024-03-02T03:51:15;33.03;;;19.37;;
13122;SDS011;6627;50.920;12.050;2024-03-02T03:53:45;30.40;;;19.30;;
13122;SDS011;6627;50.920;12.050;2024-03-02T03:56:14;27.27;;;17.37;;
13122;SDS011;6627;50.920;12.050;2024-03-02T03:58:41;29.47;;;18.23;;
13122;SDS011;6627;50.920;12.050;2024-03-02T04:01:09;30.63;;;17.97;;
13122;SDS011;6627;50.920;12.050;2024-03-02T04:03:38;30.97;;;19.27;;
13122;SDS011;6627;50.920;12.050;2024-03-02T04:06:06;28.83;;;19.00;;
13122;SDS011;6627;50.920;12.050;2024-03-02T04:08:33;33.30;;;19.37;;
13122;SDS011;6627;50.920;12.050;2024-03-02T04:11:03;29.90;;;18.83;;
13122;SDS011;6627;50.920;12.050;2024-03-02T04:13:33;33.70;;;20.33;;
13122;SDS011;6627;50.920;12.050;2024-03-02T04:16:03;34.17;;;20.57;;
13122;SDS011;6627;50.920;12.050;2024-03-02T04:18:34;36.47;;;20.57;;
13122;SDS011;6627;50.920;12.050;2024-03-02T04:21:03;34.17;;;20.53;;
13122;SDS011;6627;50.920;12.050;2024-03-02T04:23:30;35.57;;;20.67;;
13122;SDS011;6627;50.920;12.050;2024-03-02T04:25:57;38.33;;;21.30;;
13122;SDS011;6627;50.920;12.050;2024-03-02T04:28:25;37.43;;;21.70;;
13122;SDS011;6627;50.920;12.050;2024-03-02T04:30:52;37.80;;;21.30;;
13122;SDS011;6627;50.920;12.050;2024-03-02T04:33:22;44.23;;;22.37;;
13122;SDS011;6627;50.920;12.050;2024-03-02T04:35:51;37.33;;;22.10;;
13122;SDS011;6627;50.920;12.050;2024-03-02T04:38:23;40.53;;;21.60;;
13122;SDS011;6627;50.920;12.050;2024-03-02T04:40:51;35.47;;;22.03;;
13122;SDS011;6627;50.920;12.050;2024-03-02T04:43:18;38.13;;;21.87;;
13122;SDS011;6627;50.920;12.050;2024-03-02T04:45:45;39.23;;;21.70;;
13122;SDS011;6627;50.920;12.050;2024-03-02T04:48:13;42.37;;;22.17;;
13122;SDS011;6627;50.920;12.050;2024-03-02T04:50:40;41.97;;;22.27;;
13122;SDS011;6627;50.920;12.050;2024-03-02T04:53:28;35.97;;;21.47;;
13122;SDS011;6627;50.920;12.050;2024-03-02T04:55:57;35.33;;;22.27;;
13122;SDS011;6627;50.920;12.050;2024-03-02T04:58:44;40.80;;;23.10;;
13122;SDS011;6627;50.920;12.050;2024-03-02T05:01:14;39.83;;;22.27;;
13122;SDS011;6627;50.920;12.050;2024-03-02T05:03:45;34.13;;;20.83;;
13122;SDS011;6627;50.920;12.050;2024-03-02T05:06:13;37.77;;;21.37;;
13122;SDS011;6627;50.920;12.050;2024-03-02T05:08:57;39.67;;;21.97;;
13122;SDS011;6627;50.920;12.050;2024-03-02T05:11:25;35.57;;;20.67;;
13122;SDS011;6627;50.920;12.050;2024-03-02T05:14:18;38.07;;;20.77;;
13122;SDS011;6627;50.920;12.050;2024-03-02T05:16:47;36.10;;;21.13;;
13122;SDS011;6627;50.920;12.050;2024-03-02T05:19:17;34.23;;;19.77;;
13122;SDS011;6627;50.920;12.050;2024-03-02T05:21:47;30.20;;;18.50;;
13122;SDS011;6627;50.920;12.050;2024-03-02T05:24:19;31.33;;;19.10;;
13122;SDS011;6627;50.920;12.050;2024-03-02T05:27:03;29.27;;;19.40;;
13122;SDS011;6627;50.920;12.050;2024-03-02T05:29:31;28.77;;;18.00;;
13122;SDS011;6627;50.920;12.050;2024-03-02T05:32:15;31.53;;;19.03;;
13122;SDS011;6627;50.920;12.050;2024-03-02T05:34:42;32.63;;;19.37;;
13122;SDS011;6627;50.920;12.050;2024-03-02T05:37:26;30.33;;;19.03;;
13122;SDS011;6627;50.920;12.050;2024-03-02T05:39:58;38.77;;;21.60;;
13122;SDS011;6627;50.920;12.050;2024-03-02T05:42:28;34.40;;;21.63;;
13122;SDS011;6627;50.920;12.050;2024-03-02T05:44:58;30.40;;;18.40;;
13122;SDS011;6627;50.920;12.050;2024-03-02T05:47:27;33.70;;;18.40;;
13122;SDS011;6627;50.920;12.050;2024-03-02T05:49:54;29.70;;;19.37;;
13122;SDS011;6627;50.920;12.050;2024-03-02T05:52:21;33.87;;;19.53;;
13122;SDS011;6627;50.920;12.050;2024-03-02T05:54:48;34.53;;;21.00;;
13122;SDS011;6627;50.920;12.050;2024-03-02T05:57:17;35.90;;;21.47;;
13122;SDS011;6627;50.920;12.050;2024-03-02T05:59:58;47.50;;;27.93;;
13122;SDS011;6627;50.920;12.050;2024-03-02T06:02:28;64.60;;;46.40;;
13122;SDS011;6627;50.920;12.050;2024-03-02T06:04:58;126.77;;;93.07;;
13122;SDS011;6627;50.920;12.050;2024-03-02T06:07:27;67.10;;;46.73;;
13122;SDS011;6627;50.920;12.050;2024-03-02T06:09:54;54.70;;;36.97;;
13122;SDS011;6627;50.920;12.050;2024-03-02T06:12:23;43.50;;;25.83;;
13122;SDS011;6627;50.920;12.050;2024-03-02T06:14:50;39.00;;;23.67;;
13122;SDS011;6627;50.920;12.050;2024-03-02T06:17:17;38.90;;;23.67;;
13122;SDS011;6627;50.920;12.050;2024-03-02T06:19:45;40.33;;;23.77;;
13122;SDS011;6627;50.920;12.050;2024-03-02T06:22:14;42.17;;;24.77;;
13122;SDS011;6627;50.920;12.050;2024-03-02T06:24:44;38.90;;;22.77;;
13122;SDS011;6627;50.920;12.050;2024-03-02T06:27:13;38.73;;;23.53;;
13122;SDS011;6627;50.920;12.050;2024-03-02T06:29:45;45.23;;;25.37;;
13122;SDS011;6627;50.920;12.050;2024-03-02T06:32:12;42.63;;;24.63;;
13122;SDS011;6627;50.920;12.050;2024-03-02T06:34:39;36.47;;;24.30;;
13122;SDS011;6627;50.920;12.050;2024-03-02T06:37:07;39.37;;;24.83;;
13122;SDS011;6627;50.920;12.050;2024-03-02T06:39:34;41.83;;;23.63;;
13122;SDS011;6627;50.920;12.050;2024-03-02T06:42:01;39.13;;;24.47;;
13122;SDS011;6627;50.920;12.050;2024-03-02T06:44:29;41.90;;;25.57;;
13122;SDS011;6627;50.920;12.050;2024-03-02T06:46:59;39.10;;;24.60;;
13122;SDS011;6627;50.920;12.050;2024-03-02T06:49:29;46.93;;;25.73;;
13122;SDS011;6627;50.920;12.050;2024-03-02T06:51:57;41.33;;;25.43;;
13122;SDS011;6627;50.920;12.050;2024-03-02T06:54:24;39.57;;;23.13;;
13122;SDS011;6627;50.920;12.050;2024-03-02T06:56:52;40.33;;;22.63;;
13122;SDS011;6627;50.920;12.050;2024-03-02T06:59:19;35.63;;;22.60;;
13122;SDS011;6627;50.920;12.050;2024-03-02T07:01:46;35.93;;;23.23;;
13122;SDS011;6627;50.920;12.050;2024-03-02T07:04:34;38.20;;;22.73;;
13122;SDS011;6627;50.920;12.050;2024-03-02T07:07:03;41.17;;;22.70;;
13122;SDS011;6627;50.920;12.050;2024-03-02T07:09:33;38.93;;;23.33;;
13122;SDS011;6627;50.920;12.050;2024-03-02T07:12:03;37.53;;;22.80;;
13122;SDS011;6627;50.920;12.050;2024-03-02T07:14:33;38.20;;;22.63;;
13122;SDS011;6627;50.920;12.050;2024-03-02T07:17:18;36.67;;;22.57;;
13122;SDS011;6627;50.920;12.050;2024-03-02T07:19:46;38.30;;;22.80;;
13122;SDS011;6627;50.920;12.050;2024-03-02T07:22:14;38.17;;;22.27;;
13122;SDS011;6627;50.920;12.050;2024-03-02T07:24:41;37.40;;;22.80;;
13122;SDS011;6627;50.920;12.050;2024-03-02T07:27:12;37.50;;;22.83;;
13122;SDS011;6627;50.920;12.050;2024-03-02T07:29:43;36.13;;;23.33;;
13122;SDS011;6627;50.920;12.050;2024-03-02T07:32:13;35.80;;;23.03;;
13122;SDS011;6627;50.920;12.050;2024-03-02T07:34:41;33.40;;;21.93;;
13122;SDS011;6627;50.920;12.050;2024-03-02T07:37:09;36.90;;;22.77;;
13122;SDS011;6627;50.920;12.050;2024-03-02T07:39:37;41.93;;;23.77;;
13122;SDS011;6627;50.920;12.050;2024-03-02T07:42:04;36.80;;;23.43;;
13122;SDS011;6627;50.920;12.050;2024-03-02T07:44:32;37.53;;;22.73;;
13122;SDS011;6627;50.920;12.050;2024-03-02T07:46:59;43.13;;;24.43;;
13122;SDS011;6627;50.920;12.050;2024-03-02T07:49:29;39.40;;;23.40;;
13122;SDS011;6627;50.920;12.050;2024-03-02T07:51:59;41.43;;;25.50;;
13122;SDS011;6627;50.920;12.050;2024-03-02T07:54:31;40.67;;;23.57;;
13122;SDS011;6627;50.920;12.050;2024-03-02T07:56:59;40.33;;;25.00;;
13122;SDS011;6627;50.920;12.050;2024-03-02T07:59:27;41.47;;;24.23;;
13122;SDS011;6627;50.920;12.050;2024-03-02T08:02:11;41.63;;;23.53;;
13122;SDS011;6627;50.920;12.050;2024-03-02T08:04:39;40.50;;;23.73;;
13122;SDS011;6627;50.920;12.050;2024-03-02T08:07:06;39.37;;;23.53;;
13122;SDS011;6627;50.920;12.050;2024-03-02T08:09:36;39.20;;;23.07;;
13122;SDS011;6627;50.920;12.050;2024-03-02T08:12:05;37.07;;;22.43;;
13122;SDS011;6627;50.920;12.050;2024-03-02T08:14:35;36.53;;;22.97;;
13122;SDS011;6627;50.920;12.050;2024-03-02T08:17:05;39.27;;;22.73;;
13122;SDS011;6627;50.920;12.050;2024-03-02T08:19:35;42.00;;;24.77;;
13122;SDS011;6627;50.920;12.050;2024-03-02T08:22:03;36.70;;;23.03;;
13122;SDS011;6627;50.920;12.050;2024-03-02T08:24:30;37.97;;;23.60;;
13122;SDS011;6627;50.920;12.050;2024-03-02T08:26:59;38.40;;;23.53;;
13122;SDS011;6627;50.920;12.050;2024-03-02T08:29:27;38.50;;;22.13;;
13122;SDS011;6627;50.920;12.050;2024-03-02T08:32:02;35.80;;;23.03;;
13122;SDS011;6627;50.920;12.050;2024-03-02T08:34:34;34.47;;;22.37;;
13122;SDS011;6627;50.920;12.050;2024-03-02T08:37:02;39.20;;;23.60;;
13122;SDS011;6627;50.920;12.050;2024-03-02T08:39:33;34.20;;;22.43;;
13122;SDS011;6627;50.920;12.050;2024-03-02T08:42:04;38.20;;;24.33;;
13122;SDS011;6627;50.920;12.050;2024-03-02T08:44:32;37.27;;;23.43;;
13122;SDS011;6627;50.920;12.050;2024-03-02T08:46:59;37.97;;;24.20;;
13122;SDS011;6627;50.920;12.050;2024-03-02T08:49:27;37.77;;;23.23;;
13122;SDS011;6627;50.920;12.050;2024-03-02T08:51:54;39.00;;;23.53;;
13122;SDS011;6627;50.920;12.050;2024-03-02T08:54:24;37.97;;;23.17;;
13122;SDS011;6627;50.920;12.050;2024-03-02T08:56:54;38.47;;;24.03;;
13122;SDS011;6627;50.920;12.050;2024-03-02T08:59:25;35.27;;;22.57;;
13122;SDS011;6627;50.920;12.050;2024-03-02T09:01:56;35.97;;;23.03;;
13122;SDS011;6627;50.920;12.050;2024-03-02T09:04:24;38.83;;;23.20;;
13122;SDS011;6627;50.920;12.050;2024-03-02T09:06:52;40.30;;;24.10;;
13122;SDS011;6627;50.920;12.050;2024-03-02T09:09:19;35.60;;;21.90;;
13122;SDS011;6627;50.920;12.050;2024-03-02T09:11:46;32.90;;;21.97;;
13122;SDS011;6627;50.920;12.050;2024-03-02T09:14:14;35.27;;;23.27;;
13122;SDS011;6627;50.920;12.050;2024-03-02T09:16:44;35.03;;;21.57;;
13122;SDS011;6627;50.920;12.050;2024-03-02T09:19:14;31.63;;;21.33;;
13122;SDS011;6627;50.920;12.050;2024-03-02T09:21:42;30.93;;;20.73;;
13122;SDS011;6627;50.920;12.050;2024-03-02T09:24:13;32.00;;;20.37;;
13122;SDS011;6627;50.920;12.050;2024-03-02T09:26:40;30.13;;;19.77;;
13122;SDS011;6627;50.920;12.050;2024-03-02T09:29:07;31.77;;;19.70;;
13122;SDS011;6627;50.920;12.050;2024-03-02T09:31:38;26.53;;;19.17;;
13122;SDS011;6627;50.920;12.050;2024-03-02T09:34:07;26.30;;;19.07;;
13122;SDS011;6627;50.920;12.050;2024-03-02T09:36:35;24.63;;;17.27;;
13122;SDS011;6627;50.920;12.050;2024-03-02T09:39:04;27.27;;;17.90;;
13122;SDS011;6627;50.920;12.050;2024-03-02T09:41:38;28.10;;;17.90;;
13122;SDS011;6627;50.920;12.050;2024-03-02T09:44:09;24.33;;;18.30;;
13122;SDS011;6627;50.920;12.050;2024-03-02T09:46:36;28.13;;;18.40;;
13122;SDS011;6627;50.920;12.050;2024-03-02T09:49:04;26.23;;;17.63;;
13122;SDS011;6627;50.920;12.050;2024-03-02T09:51:32;25.60;;;17.27;;
13122;SDS011;6627;50.920;12.050;2024-03-02T09:54:01;26.10;;;17.10;;
13122;SDS011;6627;50.920;12.050;2024-03-02T09:56:29;26.57;;;17.57;;
13122;SDS011;6627;50.920;12.050;2024-03-02T09:59:16;23.80;;;16.63;;
13122;SDS011;6627;50.920;12.050;2024-03-02T10:01:58;22.43;;;16.57;;
13122;SDS011;6627;50.920;12.050;2024-03-02T10:04:29;25.57;;;16.73;;
13122;SDS011;6627;50.920;12.050;2024-03-02T10:07:10;24.67;;;16.63;;
13122;SDS011;6627;50.920;12.050;2024-03-02T10:09:40;21.87;;;15.07;;
13122;SDS011;6627;50.920;12.050;2024-03-02T10:12:08;22.87;;;15.27;;
13122;SDS011;6627;50.920;12.050;2024-03-02T10:14:38;20.00;;;14.07;;
13122;SDS011;6627;50.920;12.050;2024-03-02T10:17:06;19.57;;;13.20;;
13122;SDS011;6627;50.920;12.050;2024-03-02T10:19:35;19.80;;;13.10;;
13122;SDS011;6627;50.920;12.050;2024-03-02T10:22:07;19.80;;;13.37;;
13122;SDS011;6627;50.920;12.050;2024-03-02T10:24:38;19.70;;;13.40;;
13122;SDS011;6627;50.920;12.050;2024-03-02T10:27:09;19.30;;;12.87;;
13122;SDS011;6627;50.920;12.050;2024-03-02T10:29:47;17.70;;;12.63;;
13122;SDS011;6627;50.920;12.050;2024-03-02T10:32:15;16.00;;;12.33;;
13122;SDS011;6627;50.920;12.050;2024-03-02T10:34:44;17.57;;;13.13;;
13122;SDS011;6627;50.920;12.050;2024-03-02T10:37:12;17.00;;;12.70;;
13122;SDS011;6627;50.920;12.050;2024-03-02T10:39:43;16.50;;;12.03;;
13122;SDS011;6627;50.920;12.050;2024-03-02T10:42:13;17.43;;;12.03;;
13122;SDS011;6627;50.920;12.050;2024-03-02T10:44:44;15.30;;;11.30;;
13122;SDS011;6627;50.920;12.050;2024-03-02T10:47:13;15.87;;;11.70;;
13122;SDS011;6627;50.920;12.050;2024-03-02T10:49:45;15.83;;;11.87;;
13122;SDS011;6627;50.920;12.050;2024-03-02T10:52:20;15.77;;;11.63;;
13122;SDS011;6627;50.920;12.050;2024-03-02T10:54:49;17.63;;;12.27;;
13122;SDS011;6627;50.920;12.050;2024-03-02T10:57:17;19.27;;;10.87;;
13122;SDS011;6627;50.920;12.050;2024-03-02T10:59:50;14.03;;;10.87;;
13122;SDS011;6627;50.920;12.050;2024-03-02T11:02:22;15.07;;;11.13;;
13122;SDS011;6627;50.920;12.050;2024-03-02T11:05:09;14.63;;;10.77;;
13122;SDS011;6627;50.920;12.050;2024-03-02T11:07:42;14.03;;;10.57;;
13122;SDS011;6627;50.920;12.050;2024-03-02T11:10:13;16.53;;;11.77;;
13122;SDS011;6627;50.920;12.050;2024-03-02T11:12:47;14.80;;;11.40;;
13122;SDS011;6627;50.920;12.050;2024-03-02T11:15:27;15.33;;;10.30;;
13122;SDS011;6627;50.920;12.050;2024-03-02T11:17:55;13.20;;;9.80;;
13122;SDS011;6627;50.920;12.050;2024-03-02T11:20:24;12.63;;;9.63;;
13122;SDS011;6627;50.920;12.050;2024-03-02T11:22:54;12.47;;;9.03;;
13122;SDS011;6627;50.920;12.050;2024-03-02T11:25:26;12.17;;;8.77;;
13122;SDS011;6627;50.920;12.050;2024-03-02T11:28:00;9.73;;;7.87;;
13122;SDS011;6627;50.920;12.050;2024-03-02T11:30:51;9.43;;;7.43;;
13122;SDS011;6627;50.920;12.050;2024-03-02T11:33:25;10.07;;;6.80;;
13122;SDS011;6627;50.920;12.050;2024-03-02T11:35:59;12.03;;;7.73;;
13122;SDS011;6627;50.920;12.050;2024-03-02T11:38:28;10.33;;;7.63;;
13122;SDS011;6627;50.920;12.050;2024-03-02T11:41:01;9.97;;;6.93;;
13122;SDS011;6627;50.920;12.050;2024-03-02T11:43:36;9.53;;;7.30;;
13122;SDS011;6627;50.920;12.050;2024-03-02T11:46:05;9.20;;;7.17;;
13122;SDS011;6627;50.920;12.050;2024-03-02T11:48:36;10.53;;;8.57;;
13122;SDS011;6627;50.920;12.050;2024-03-02T11:51:07;10.57;;;8.47;;
13122;SDS011;6627;50.920;12.050;2024-03-02T11:53:36;10.70;;;8.10;;
13122;SDS011;6627;50.920;12.050;2024-03-02T11:56:09;11.47;;;8.97;;
13122;SDS011;6627;50.920;12.050;2024-03-02T11:58:40;14.63;;;8.67;;
13122;SDS011;6627;50.920;12.050;2024-03-02T12:01:08;12.77;;;9.20;;
13122;SDS011;6627;50.920;12.050;2024-03-02T12:03:37;10.90;;;8.60;;
13122;SDS011;6627;50.920;12.050;2024-03-02T12:06:05;11.50;;;9.00;;
13122;SDS011;6627;50.920;12.050;2024-03-02T12:08:33;11.83;;;8.97;;
13122;SDS011;6627;50.920;12.050;2024-03-02T12:11:04;12.37;;;8.40;;
13122;SDS011;6627;50.920;12.050;2024-03-02T12:13:33;12.67;;;9.23;;
13122;SDS011;6627;50.920;12.050;2024-03-02T12:16:02;12.33;;;8.77;;
13122;SDS011;6627;50.920;12.050;2024-03-02T12:18:33;10.43;;;8.23;;
13122;SDS011;6627;50.920;12.050;2024-03-02T12:21:01;10.47;;;8.80;;
13122;SDS011;6627;50.920;12.050;2024-03-02T12:23:35;9.20;;;7.37;;
13122;SDS011;6627;50.920;12.050;2024-03-02T12:26:03;10.03;;;7.67;;
13122;SDS011;6627;50.920;12.050;2024-03-02T12:28:31;8.60;;;7.50;;
13122;SDS011;6627;50.920;12.050;2024-03-02T12:31:00;9.03;;;6.93;;
13122;SDS011;6627;50.920;12.050;2024-03-02T12:33:30;8.80;;;6.70;;
13122;SDS011;6627;50.920;12.050;2024-03-02T12:36:00;8.73;;;6.90;;
13122;SDS011;6627;50.920;12.050;2024-03-02T12:38:30;9.40;;;7.10;;
13122;SDS011;6627;50.920;12.050;2024-03-02T12:41:00;8.83;;;6.50;;
13122;SDS011;6627;50.920;12.050;2024-03-02T12:43:29;8.20;;;6.80;;
13122;SDS011;6627;50.920;12.050;2024-03-02T12:45:59;9.93;;;7.30;;
13122;SDS011;6627;50.920;12.050;2024-03-02T12:48:26;9.20;;;7.40;;
13122;SDS011;6627;50.920;12.050;2024-03-02T12:50:54;10.57;;;7.63;;
13122;SDS011;6627;50.920;12.050;2024-03-02T12:53:21;8.73;;;7.43;;
13122;SDS011;6627;50.920;12.050;2024-03-02T12:55:52;9.87;;;7.63;;
13122;SDS011;6627;50.920;12.050;2024-03-02T12:58:24;10.80;;;7.47;;
13122;SDS011;6627;50.920;12.050;2024-03-02T13:01:06;10.20;;;7.30;;
13122;SDS011;6627;50.920;12.050;2024-03-02T13:03:35;8.47;;;7.20;;
13122;SDS011;6627;50.920;12.050;2024-03-02T13:06:04;9.10;;;7.77;;
13122;SDS011;6627;50.920;12.050;2024-03-02T13:08:33;8.23;;;7.23;;
13122;SDS011;6627;50.920;12.050;2024-03-02T13:11:01;7.97;;;6.57;;
13122;SDS011;6627;50.920;12.050;2024-03-02T13:13:30;9.00;;;7.30;;
13122;SDS011;6627;50.920;12.050;2024-03-02T13:16:01;9.33;;;7.03;;
13122;SDS011;6627;50.920;12.050;2024-03-02T13:18:33;8.60;;;6.60;;
13122;SDS011;6627;50.920;12.050;2024-03-02T13:21:03;10.07;;;6.70;;
13122;SDS011;6627;50.920;12.050;2024-03-02T13:23:33;7.27;;;6.33;;
13122;SDS011;6627;50.920;12.050;2024-03-02T13:26:02;8.40;;;6.90;;
13122;SDS011;6627;50.920;12.050;2024-03-02T13:28:30;7.40;;;6.17;;
13122;SDS011;6627;50.920;12.050;2024-03-02T13:30:57;8.00;;;6.23;;
13122;SDS011;6627;50.920;12.050;2024-03-02T13:33:24;10.17;;;7.47;;
13122;SDS011;6627;50.920;12.050;2024-03-02T13:35:54;9.63;;;7.33;;
13122;SDS011;6627;50.920;12.050;2024-03-02T13:38:38;7.87;;;6.70;;
13122;SDS011;6627;50.920;12.050;2024-03-02T13:41:06;10.53;;;6.90;;
13122;SDS011;6627;50.920;12.050;2024-03-02T13:43:36;8.53;;;6.53;;
13122;SDS011;6627;50.920;12.050;2024-03-02T13:46:05;7.53;;;6.00;;
13122;SDS011;6627;50.920;12.050;2024-03-02T13:48:33;7.97;;;6.10;;
13122;SDS011;6627;50.920;12.050;2024-03-02T13:51:01;6.10;;;5.03;;
13122;SDS011;6627;50.920;12.050;2024-03-02T13:53:29;7.10;;;6.13;;
13122;SDS011;6627;50.920;12.050;2024-03-02T13:55:57;8.07;;;6.67;;
13122;SDS011;6627;50.920;12.050;2024-03-02T13:58:25;6.60;;;5.77;;
13122;SDS011;6627;50.920;12.050;2024-03-02T14:00:53;8.10;;;6.90;;
13122;SDS011;6627;50.920;12.050;2024-03-02T14:03:24;10.37;;;6.30;;
13122;SDS011;6627;50.920;12.050;2024-03-02T14:05:56;7.73;;;6.50;;
13122;SDS011;6627;50.920;12.050;2024-03-02T14:08:28;9.00;;;6.90;;
13122;SDS011;6627;50.920;12.050;2024-03-02T14:11:11;8.17;;;6.83;;
13122;SDS011;6627;50.920;12.050;2024-03-02T14:13:40;13.47;;;7.97;;
13122;SDS011;6627;50.920;12.050;2024-03-02T14:16:09;8.13;;;7.20;;
13122;SDS011;6627;50.920;12.050;2024-03-02T14:18:37;7.90;;;5.87;;
13122;SDS011;6627;50.920;12.050;2024-03-02T14:21:24;6.57;;;4.30;;
13122;SDS011;6627;50.920;12.050;2024-03-02T14:23:56;6.43;;;4.80;;
13122;SDS011;6627;50.920;12.050;2024-03-02T14:26:26;6.30;;;5.00;;
13122;SDS011;6627;50.920;12.050;2024-03-02T14:28:56;5.83;;;4.90;;
13122;SDS011;6627;50.920;12.050;2024-03-02T14:31:26;6.90;;;4.57;;
13122;SDS011;6627;50.920;12.050;2024-03-02T14:33:53;6.63;;;5.30;;
13122;SDS011;6627;50.920;12.050;2024-03-02T14:36:20;5.23;;;4.73;;
13122;SDS011;6627;50.920;12.050;2024-03-02T14:38:48;6.73;;;4.50;;
13122;SDS011;6627;50.920;12.050;2024-03-02T14:41:17;5.83;;;5.13;;
13122;SDS011;6627;50.920;12.050;2024-03-02T14:44:03;8.07;;;5.50;;